Details From ENGM - Oslo Gardermoen
To ESGG - Goteborg Landvetter
Flight Number -
Tags Generated
Created
Modified
Stats Distance 156 nm / 289 km
Max Altitude 0 ft / 0 m
Waypoints 2
Social Downloads 3
Likes 0
Share VATSIM

Download

Looking for another format? Having issues loading an existing format? Contact us
Advertisement - Login to hide

Notes

Generated

Route

ENGM ESGG

ID Type Via Altitude (ft/m) Position (lat/lon) Dist (leg/tot) Name
O ENGM APT - 0 / 0 60.17576 / 11.10778 - / 0 nm
O ESGG APT - 0 / 0 57.64952 / 12.26771 155 / 155 nm

Altitude Profile

Advertisement - Login to hide

ENGM

Details ICAO ENGM (OSL)
Name Oslo Gardermoen
Region Norway
Timezone Europe/Oslo (UTC+2.0)
Stats Elevation 681 ft / 208 m (AMSL)
Location 60.194500° 11.098900°
Runways 2
Magnetic Variation 3.518° E

METAR

ENGM 241650Z 35004KT 300V030 CAVOK 08/M06 Q1021 NOSIG

Decode

TAF

TAF ENGM 241100Z 2412/2512 34010KT CAVOK BECMG 2422/2424 VRB05KT BECMG 2508/2510 19010KT

Decode

Departure Runways

ID Width Length Bearing (true/mag) Surface Threshold Overrun Markings Lighting
01L 148 ft / 45 m 11,790 ft / 3,594 m 15.99° / 12.47° ASPHALT 0 ft / 0 m 486 ft / 148 m PREC-APP CENTERLINE EDGE THRESHOLD ALSF-I
01R 148 ft / 45 m 9,659 ft / 2,944 m 16.03° / 12.51° ASPHALT 0 ft / 0 m 492 ft / 150 m PREC-APP CENTERLINE EDGE THRESHOLD ALSF-II TDZ
19L 148 ft / 45 m 9,659 ft / 2,944 m 196.04° / 192.52° ASPHALT 0 ft / 0 m 495 ft / 151 m PREC-APP CENTERLINE EDGE THRESHOLD ALSF-I
19R 148 ft / 45 m 11,790 ft / 3,594 m 196.00° / 192.48° ASPHALT 0 ft / 0 m 492 ft / 150 m PREC-APP CENTERLINE EDGE THRESHOLD ALSF-II TDZ

ESGG

Details ICAO ESGG (GOT)
Name Goteborg Landvetter
Region Sweden
Timezone Europe/Stockholm (UTC+2.0)
Stats Elevation 505 ft / 154 m (AMSL)
Location 57.662800° 12.279800°
Runways 1
Magnetic Variation 3.837° E

METAR

ESGG 241720Z 31006KT CAVOK 07/M01 Q1022

Decode

TAF

TAF TAF ESGG 241130Z 2412/2512 33010KT CAVOK BECMG 2505/2507 27007KT

Decode

Destination Runways

ID Width Length Bearing (true/mag) Surface Threshold Overrun Markings Lighting
03 148 ft / 45 m 10,805 ft / 3,293 m 25.95° / 22.11° ASPHALT 0 ft / 0 m 207 ft / 63 m PREC-APP CENTERLINE EDGE THRESHOLD CALVERT-ILS TDZ
21 148 ft / 45 m 10,805 ft / 3,293 m 205.97° / 202.13° ASPHALT 0 ft / 0 m 207 ft / 63 m PREC-APP CENTERLINE EDGE THRESHOLD CALVERT-ILS TDZ

Approach Navaids

Runway Type Ident Frequency Range Bearing (true/mag) Slope Elevation
03 LOC-ILS SSG 110.30 MHz 18 nm / 33 km 25.96° / 22.13 ° - 506 ft / 154 m (AMSL)
03 GS SSG 110.30 MHz 10 nm / 19 km 25.96° / 22.13 ° 3.00° 506 ft / 154 m (AMSL)
03 OM OM - - 25.73° / 21.89 ° - 410 ft / 125 m (AMSL)
03 MM MM - - 25.95° / 22.11 ° - 506 ft / 154 m (AMSL)
21 MM MM - - 205.95° / 202.11 ° - 506 ft / 154 m (AMSL)
21 LOC-ILS NGG 108.50 MHz 18 nm / 33 km 205.96° / 202.13 ° - 506 ft / 154 m (AMSL)
21 GS NGG 108.50 MHz 10 nm / 19 km 205.96° / 202.13 ° 3.00° 506 ft / 154 m (AMSL)
21 OM OM - - 205.73° / 201.89 ° - 346 ft / 105 m (AMSL)

Popular Alternatives